createdAt,value
2022-11-24T00:01:03.980Z,44.67
2022-11-24T00:03:30.949Z,45.00
2022-11-24T00:06:02.207Z,43.33
2022-11-24T00:08:29.017Z,40.70
2022-11-24T00:10:57.836Z,45.93
2022-11-24T00:13:24.601Z,41.43
2022-11-24T00:15:51.423Z,39.57
2022-11-24T00:18:18.185Z,43.40
2022-11-24T00:20:52.280Z,45.87
2022-11-24T00:23:19.060Z,44.93
2022-11-24T00:25:48.031Z,44.53
2022-11-24T00:28:14.848Z,42.50
2022-11-24T00:30:43.849Z,47.67
2022-11-24T00:33:15.174Z,50.30
2022-11-24T00:35:41.958Z,46.77
2022-11-24T00:38:11.162Z,46.97
2022-11-24T00:40:38.005Z,46.47
2022-11-24T00:43:04.799Z,48.40
2022-11-24T00:45:31.649Z,49.73
2022-11-24T00:47:58.468Z,48.37
2022-11-24T00:50:25.272Z,51.30
2022-11-24T00:52:56.929Z,51.00
2022-11-24T00:55:23.767Z,52.60
2022-11-24T00:57:50.586Z,49.87
2022-11-24T01:00:22.271Z,52.03
2022-11-24T01:02:49.178Z,55.50
2022-11-24T01:05:16.013Z,49.30
2022-11-24T01:07:45.058Z,51.67
2022-11-24T01:10:11.871Z,51.20
2022-11-24T01:12:41.553Z,51.67
2022-11-24T01:15:09.256Z,49.70
2022-11-24T01:17:38.271Z,51.53
2022-11-24T01:20:07.924Z,54.93
2022-11-24T01:22:38.495Z,50.07
2022-11-24T01:25:09.821Z,50.60
2022-11-24T01:27:36.637Z,49.43
2022-11-24T01:30:03.716Z,52.90
2022-11-24T01:32:30.520Z,51.03
2022-11-24T01:34:57.463Z,58.53
2022-11-24T01:37:24.267Z,55.00
2022-11-24T01:39:51.049Z,56.40
2022-11-24T01:42:17.913Z,58.90
2022-11-24T01:44:44.730Z,54.07
2022-11-24T01:47:36.461Z,54.73
2022-11-24T01:50:03.735Z,52.73
2022-11-24T01:52:38.516Z,50.07
2022-11-24T01:55:08.487Z,55.77
2022-11-24T01:57:46.844Z,50.00
2022-11-24T02:00:14.304Z,52.97
2022-11-24T02:02:42.205Z,51.03
2022-11-24T02:05:14.335Z,53.13
2022-11-24T02:07:43.726Z,43.93
2022-11-24T02:10:13.984Z,49.13
2022-11-24T02:12:42.421Z,40.33
2022-11-24T02:15:10.193Z,39.40
2022-11-24T02:17:37.459Z,42.00
2022-11-24T02:20:06.156Z,40.10
2022-11-24T02:22:47.474Z,38.87
2022-11-24T02:25:16.732Z,40.10
2022-11-24T02:27:50.757Z,39.73
2022-11-24T02:30:22.978Z,35.43
2022-11-24T02:32:49.942Z,36.93
2022-11-24T02:35:17.237Z,33.30
2022-11-24T02:37:46.386Z,36.57
2022-11-24T02:40:18.490Z,33.93
2022-11-24T02:42:45.294Z,38.23
2022-11-24T02:45:12.320Z,33.70
2022-11-24T02:47:39.113Z,30.00
2022-11-24T02:50:06.363Z,30.00
2022-11-24T02:52:33.325Z,32.83
2022-11-24T02:55:00.095Z,30.67
2022-11-24T02:57:26.928Z,29.80
2022-11-24T02:59:53.757Z,30.57
2022-11-24T03:02:25.367Z,32.70
2022-11-24T03:04:52.235Z,30.03
2022-11-24T03:07:21.363Z,34.77
2022-11-24T03:09:48.195Z,35.70
2022-11-24T03:12:14.997Z,36.27
2022-11-24T03:14:44.253Z,33.60
2022-11-24T03:17:13.373Z,30.10
2022-11-24T03:19:40.139Z,30.13
2022-11-24T03:22:07.002Z,28.63
2022-11-24T03:24:34.079Z,30.23
2022-11-24T03:27:03.241Z,31.20
2022-11-24T03:29:34.735Z,29.27
2022-11-24T03:32:01.930Z,32.60
2022-11-24T03:34:31.215Z,35.43
2022-11-24T03:36:58.572Z,31.97
2022-11-24T03:39:25.389Z,32.53
2022-11-24T03:41:52.172Z,33.37
2022-11-24T03:44:18.964Z,30.73
2022-11-24T03:46:47.229Z,35.10
2022-11-24T03:49:14.101Z,34.13
2022-11-24T03:51:40.863Z,32.70
2022-11-24T03:54:07.916Z,34.63
2022-11-24T03:56:34.717Z,31.37
2022-11-24T03:59:01.521Z,34.17
2022-11-24T04:01:28.313Z,31.00
2022-11-24T04:03:55.135Z,32.90
2022-11-24T04:06:21.978Z,30.43
2022-11-24T04:08:48.819Z,31.17
2022-11-24T04:11:35.600Z,31.83
2022-11-24T04:14:02.388Z,31.23
2022-11-24T04:16:29.182Z,30.77
2022-11-24T04:18:58.202Z,28.27
2022-11-24T04:21:25.118Z,31.23
2022-11-24T04:23:56.671Z,29.37
2022-11-24T04:26:25.933Z,31.27
2022-11-24T04:28:52.738Z,30.60
2022-11-24T04:31:21.989Z,30.37
2022-11-24T04:33:48.804Z,29.30
2022-11-24T04:36:15.554Z,29.17
2022-11-24T04:39:23.768Z,29.47
2022-11-24T04:41:34.203Z,32.27
2022-11-24T04:44:01.010Z,31.57
2022-11-24T04:46:27.899Z,27.97
2022-11-24T04:48:54.712Z,31.03
2022-11-24T04:51:21.497Z,31.03
2022-11-24T04:53:51.429Z,33.40
2022-11-24T04:56:18.246Z,29.63
2022-11-24T04:58:47.631Z,31.67
2022-11-24T05:01:16.543Z,26.47
2022-11-24T05:03:43.411Z,30.13
2022-11-24T05:06:12.410Z,31.20
2022-11-24T05:08:44.211Z,29.17
2022-11-24T05:11:10.959Z,29.20
2022-11-24T05:13:37.685Z,28.83
2022-11-24T05:16:04.836Z,29.87
2022-11-24T05:18:34.823Z,27.83
2022-11-24T05:21:01.595Z,28.00
2022-11-24T05:23:28.341Z,30.23
2022-11-24T05:25:55.109Z,29.97
2022-11-24T05:28:21.872Z,29.60
2022-11-24T05:30:48.715Z,30.53
2022-11-24T05:33:19.055Z,31.83
2022-11-24T05:35:51.899Z,28.17
2022-11-24T05:38:23.957Z,30.53
2022-11-24T05:40:55.431Z,33.33
2022-11-24T05:43:24.553Z,27.50
2022-11-24T05:45:53.493Z,27.77
2022-11-24T05:48:22.812Z,28.23
2022-11-24T05:50:56.680Z,31.80
2022-11-24T05:53:23.954Z,27.67
2022-11-24T05:55:50.691Z,28.37
2022-11-24T05:58:17.433Z,26.67
2022-11-24T06:00:46.386Z,28.13
2022-11-24T06:03:13.205Z,27.17
2022-11-24T06:05:40.009Z,27.00
2022-11-24T06:08:06.738Z,26.83
2022-11-24T06:10:33.436Z,30.30
2022-11-24T06:13:04.034Z,29.77
2022-11-24T06:15:30.782Z,27.87
2022-11-24T06:17:57.515Z,27.50
2022-11-24T06:20:29.824Z,29.40
2022-11-24T06:23:00.040Z,28.40
2022-11-24T06:25:27.058Z,26.17
2022-11-24T06:27:53.816Z,22.73
2022-11-24T06:30:23.298Z,26.53
2022-11-24T06:32:53.971Z,28.30
2022-11-24T06:35:23.289Z,31.77
2022-11-24T06:37:50.032Z,26.77
2022-11-24T06:40:19.270Z,24.43
2022-11-24T06:42:51.298Z,27.53
2022-11-24T06:45:18.012Z,25.47
2022-11-24T06:47:44.751Z,28.10
2022-11-24T06:50:11.456Z,28.43
2022-11-24T06:52:38.146Z,28.40
2022-11-24T06:55:05.330Z,26.60
2022-11-24T06:57:35.210Z,26.03
2022-11-24T07:00:02.855Z,22.80
2022-11-24T07:02:29.598Z,24.63
2022-11-24T07:04:56.507Z,27.10
2022-11-24T07:07:23.252Z,26.83
2022-11-24T07:09:49.981Z,30.53
2022-11-24T07:12:16.732Z,30.87
2022-11-24T07:14:45.918Z,28.70
2022-11-24T07:17:14.828Z,32.40
2022-11-24T07:19:41.551Z,28.80
2022-11-24T07:22:08.401Z,33.87
2022-11-24T07:24:35.255Z,31.03
2022-11-24T07:27:02.134Z,36.73
2022-11-24T07:29:28.943Z,35.70
2022-11-24T07:31:56.862Z,34.57
2022-11-24T07:34:28.492Z,37.73
2022-11-24T07:36:55.229Z,36.17
2022-11-24T07:39:22.072Z,35.73
2022-11-24T07:41:48.753Z,37.60
2022-11-24T07:44:15.602Z,33.67
2022-11-24T07:46:42.311Z,34.47
2022-11-24T07:49:08.999Z,39.67
2022-11-24T07:51:38.179Z,34.50
2022-11-24T07:54:04.897Z,35.87
2022-11-24T07:56:31.636Z,35.80
2022-11-24T07:58:58.353Z,35.90
2022-11-24T08:01:25.083Z,34.00
2022-11-24T08:03:51.944Z,32.07
2022-11-24T08:06:30.510Z,36.73
2022-11-24T08:09:01.610Z,33.43
2022-11-24T08:11:28.436Z,31.33
2022-11-24T08:13:55.197Z,31.10
2022-11-24T08:16:24.435Z,30.00
2022-11-24T08:18:52.564Z,33.43
2022-11-24T08:21:19.344Z,29.77
2022-11-24T08:23:46.046Z,33.37
2022-11-24T08:26:19.483Z,31.67
2022-11-24T08:28:46.766Z,29.53
2022-11-24T08:31:15.943Z,29.90
2022-11-24T08:33:42.762Z,30.33
2022-11-24T08:36:11.474Z,32.00
2022-11-24T08:38:38.328Z,32.27
2022-11-24T08:41:07.463Z,28.57
2022-11-24T08:43:34.356Z,32.77
2022-11-24T08:46:02.263Z,33.73
2022-11-24T08:48:29.171Z,27.13
2022-11-24T08:50:57.355Z,27.83
2022-11-24T08:53:24.187Z,30.87
2022-11-24T08:55:50.987Z,25.37
2022-11-24T08:58:20.050Z,29.57
2022-11-24T09:00:46.734Z,24.43
2022-11-24T09:03:13.471Z,32.60
2022-11-24T09:05:55.455Z,30.87
2022-11-24T09:08:22.187Z,27.00
2022-11-24T09:10:48.996Z,35.33
2022-11-24T09:13:15.682Z,29.43
2022-11-24T09:15:46.856Z,31.17
2022-11-24T09:18:13.594Z,32.03
2022-11-24T09:20:40.767Z,27.57
2022-11-24T09:23:07.461Z,31.10
2022-11-24T09:25:34.222Z,29.30
2022-11-24T09:28:01.021Z,32.87
2022-11-24T09:30:27.822Z,29.13
2022-11-24T09:32:56.612Z,29.83
2022-11-24T09:35:25.788Z,28.70
2022-11-24T09:37:52.624Z,31.70
2022-11-24T09:40:25.574Z,31.23
2022-11-24T09:42:54.463Z,30.43
2022-11-24T09:45:48.968Z,29.70
2022-11-24T09:48:20.628Z,32.53
2022-11-24T09:50:47.742Z,30.20
2022-11-24T09:53:17.291Z,26.73
2022-11-24T09:55:50.914Z,27.83
2022-11-24T09:58:18.640Z,30.13
2022-11-24T10:00:46.764Z,29.53
2022-11-24T10:03:37.335Z,34.73
2022-11-24T10:06:11.435Z,31.93
2022-11-24T10:09:02.831Z,32.67
2022-11-24T10:11:35.245Z,32.93
2022-11-24T10:14:05.031Z,36.60
2022-11-24T10:16:55.748Z,32.33
2022-11-24T10:19:50.474Z,39.67
2022-11-24T10:22:38.339Z,33.23
2022-11-24T10:25:08.227Z,38.27
2022-11-24T10:27:43.671Z,31.90
2022-11-24T10:30:19.117Z,36.67
2022-11-24T10:32:49.771Z,34.00
2022-11-24T10:35:19.107Z,35.37
2022-11-24T10:38:03.296Z,31.20
2022-11-24T10:41:04.516Z,30.87
2022-11-24T10:43:31.284Z,31.83
2022-11-24T10:46:12.527Z,33.10
2022-11-24T10:48:49.039Z,37.57
2022-11-24T10:51:41.809Z,34.60
2022-11-24T10:54:11.911Z,32.03
2022-11-24T10:56:40.280Z,34.63
2022-11-24T10:59:25.083Z,33.03
2022-11-24T11:01:52.448Z,33.73
2022-11-24T11:04:21.299Z,33.03
2022-11-24T11:06:50.080Z,32.30
2022-11-24T11:09:21.106Z,34.80
2022-11-24T11:11:51.237Z,34.13
2022-11-24T11:14:32.140Z,35.40
2022-11-24T11:16:58.865Z,36.17
2022-11-24T11:19:58.438Z,33.97
2022-11-24T11:22:26.958Z,35.67
2022-11-24T11:25:27.075Z,33.53
2022-11-24T11:28:22.030Z,33.33
2022-11-24T11:34:16.672Z,38.53
2022-11-24T11:36:50.498Z,35.87
2022-11-24T11:39:23.488Z,36.37
2022-11-24T11:42:00.723Z,37.63
2022-11-24T11:44:29.619Z,39.80
2022-11-24T11:46:59.063Z,36.50
2022-11-24T11:49:25.967Z,37.27
2022-11-24T11:52:15.945Z,38.50
2022-11-24T11:55:07.026Z,37.43
2022-11-24T11:57:56.449Z,33.23
2022-11-24T12:00:23.337Z,33.43
2022-11-24T12:03:40.123Z,36.63
2022-11-24T12:06:15.315Z,34.63
2022-11-24T12:09:21.970Z,34.70
2022-11-24T12:11:57.939Z,34.60
2022-11-24T12:14:49.862Z,39.30
2022-11-24T12:17:32.878Z,39.97
2022-11-24T12:20:23.941Z,36.97
2022-11-24T12:23:02.607Z,40.20
2022-11-24T12:25:45.836Z,37.97
2022-11-24T12:28:30.676Z,39.30
2022-11-24T12:31:07.206Z,37.80
2022-11-24T12:33:46.250Z,38.70
2022-11-24T12:36:26.970Z,38.07
2022-11-24T12:39:19.277Z,39.30
2022-11-24T12:42:09.296Z,37.83
2022-11-24T12:44:50.325Z,41.80
2022-11-24T12:47:29.469Z,38.20
2022-11-24T12:50:03.986Z,43.13
2022-11-24T12:52:44.327Z,43.20
2022-11-24T12:55:29.397Z,38.60
2022-11-24T12:58:17.501Z,32.63
2022-11-24T13:00:55.937Z,34.13
2022-11-24T13:04:04.169Z,37.80
2022-11-24T13:06:49.293Z,38.77
2022-11-24T13:09:16.813Z,34.30
2022-11-24T13:11:46.119Z,32.80
2022-11-24T13:14:22.639Z,39.23
2022-11-24T13:17:29.541Z,37.57
2022-11-24T13:19:45.174Z,38.70
2022-11-24T13:22:16.989Z,36.60
2022-11-24T13:24:44.910Z,35.43
2022-11-24T13:27:18.909Z,33.87
2022-11-24T13:29:46.100Z,35.17
2022-11-24T13:32:14.941Z,39.27
2022-11-24T13:34:45.717Z,33.17
2022-11-24T13:37:31.504Z,31.57
2022-11-24T13:40:11.710Z,36.33
2022-11-24T13:43:00.425Z,37.63
2022-11-24T13:45:40.208Z,35.77
2022-11-24T13:48:19.878Z,36.63
2022-11-24T13:50:50.025Z,38.07
2022-11-24T13:53:55.023Z,41.53
2022-11-24T13:56:23.815Z,43.60
2022-11-24T13:59:24.246Z,45.00
2022-11-24T14:01:57.239Z,50.70
2022-11-24T14:04:31.572Z,49.80
2022-11-24T14:07:12.267Z,47.53
2022-11-24T14:09:43.885Z,49.50
2022-11-24T14:12:13.721Z,47.67
2022-11-24T14:14:40.887Z,39.53
2022-11-24T14:17:08.449Z,48.03
2022-11-24T14:19:37.385Z,45.87
2022-11-24T14:22:10.998Z,47.50
2022-11-24T14:24:41.523Z,49.73
2022-11-24T14:27:19.436Z,55.40
2022-11-24T14:29:56.811Z,48.97
2022-11-24T14:32:26.008Z,50.87
2022-11-24T14:34:54.206Z,53.83
2022-11-24T14:37:21.066Z,52.80
2022-11-24T14:39:47.911Z,45.20
2022-11-24T14:42:25.338Z,41.90
2022-11-24T14:44:59.978Z,44.13
2022-11-24T14:47:37.111Z,49.50
2022-11-24T14:50:19.657Z,43.13
2022-11-24T14:52:56.908Z,51.97
2022-11-24T14:55:28.404Z,48.20
2022-11-24T14:57:55.328Z,48.60
2022-11-24T15:00:25.105Z,49.63
2022-11-24T15:03:00.787Z,51.03
2022-11-24T15:05:58.449Z,50.67
2022-11-24T15:08:26.403Z,49.23
2022-11-24T15:11:00.440Z,56.63
2022-11-24T15:13:27.210Z,56.63
2022-11-24T15:16:04.558Z,48.50
2022-11-24T15:18:43.128Z,54.07
2022-11-24T15:21:15.585Z,46.77
2022-11-24T15:24:05.146Z,47.83
2022-11-24T15:26:36.740Z,41.77
2022-11-24T15:29:10.328Z,44.47
2022-11-24T15:31:39.698Z,46.40
2022-11-24T15:34:06.566Z,45.87
2022-11-24T15:36:33.298Z,42.77
2022-11-24T15:39:00.133Z,46.87
2022-11-24T15:41:29.636Z,47.97
2022-11-24T15:43:59.447Z,45.53
2022-11-24T15:46:27.407Z,45.77
2022-11-24T15:48:54.170Z,43.67
2022-11-24T15:51:20.943Z,45.87
2022-11-24T15:53:57.182Z,43.10
2022-11-24T15:56:30.763Z,51.63
2022-11-24T15:58:57.600Z,42.77
2022-11-24T16:01:24.898Z,51.30
2022-11-24T16:03:56.432Z,55.30
2022-11-24T16:06:25.146Z,56.70
2022-11-24T16:08:55.232Z,50.00
2022-11-24T16:11:22.408Z,49.83
2022-11-24T16:13:54.035Z,51.03
2022-11-24T16:16:24.861Z,49.87
2022-11-24T16:18:51.735Z,49.07
2022-11-24T16:21:23.268Z,46.40
2022-11-24T16:23:52.190Z,51.13
2022-11-24T16:26:21.215Z,48.80
2022-11-24T16:28:50.568Z,47.40
2022-11-24T16:31:18.436Z,46.10
2022-11-24T16:33:46.276Z,46.77
2022-11-24T16:36:13.813Z,51.33
2022-11-24T16:38:40.523Z,45.30
2022-11-24T16:41:10.407Z,49.40
2022-11-24T16:43:37.558Z,47.33
2022-11-24T16:46:16.280Z,49.60
2022-11-24T16:48:43.718Z,50.37
2022-11-24T16:51:15.256Z,49.90
2022-11-24T16:53:42.177Z,46.30
2022-11-24T16:56:09.405Z,51.17
2022-11-24T16:58:40.022Z,48.97
2022-11-24T17:01:11.650Z,49.50
2022-11-24T17:03:41.315Z,51.47
2022-11-24T17:06:09.794Z,50.87
2022-11-24T17:08:37.381Z,54.17
2022-11-24T17:11:07.349Z,59.40
2022-11-24T17:13:36.266Z,59.40
2022-11-24T17:16:07.405Z,59.00
2022-11-24T17:18:34.270Z,62.17
2022-11-24T17:21:07.727Z,61.87
2022-11-24T17:23:41.078Z,60.40
2022-11-24T17:26:12.993Z,60.47
2022-11-24T17:28:42.161Z,53.93
2022-11-24T17:31:32.297Z,56.53
2022-11-24T17:34:02.974Z,56.80
2022-11-24T17:36:32.730Z,63.53
2022-11-24T17:39:00.211Z,62.07
2022-11-24T17:41:27.890Z,64.90
2022-11-24T17:43:55.945Z,64.00
2022-11-24T17:46:23.896Z,63.10
2022-11-24T17:48:50.721Z,64.23
2022-11-24T17:51:19.160Z,68.47
2022-11-24T17:53:46.809Z,63.90
2022-11-24T17:56:18.379Z,59.10
2022-11-24T17:58:49.839Z,61.60
2022-11-24T18:01:18.801Z,57.57
2022-11-24T18:03:53.398Z,57.40
2022-11-24T18:06:20.683Z,54.07
2022-11-24T18:08:47.417Z,51.77
2022-11-24T18:11:31.417Z,58.77
2022-11-24T18:14:01.454Z,58.47
2022-11-24T18:16:31.174Z,56.33
2022-11-24T18:19:14.894Z,61.63
2022-11-24T18:21:42.313Z,59.00
2022-11-24T18:24:09.947Z,63.10
2022-11-24T18:26:39.084Z,67.40
2022-11-24T18:29:05.907Z,66.57
2022-11-24T18:31:35.812Z,61.33
2022-11-24T18:34:03.290Z,63.03
2022-11-24T18:36:32.655Z,68.77
2022-11-24T18:39:03.664Z,65.83
2022-11-24T18:41:30.441Z,65.73
2022-11-24T18:43:57.223Z,68.80
2022-11-24T18:46:24.014Z,68.60
2022-11-24T18:48:53.020Z,82.47
2022-11-24T18:51:19.753Z,80.70
2022-11-24T18:53:46.661Z,86.10
2022-11-24T18:56:17.098Z,86.43
2022-11-24T18:58:43.912Z,86.60
2022-11-24T19:01:15.698Z,88.03
2022-11-24T19:03:48.964Z,86.87
2022-11-24T19:06:17.815Z,90.17
2022-11-24T19:08:45.171Z,85.30
2022-11-24T19:11:18.879Z,87.57
2022-11-24T19:13:45.721Z,85.43
2022-11-24T19:16:15.221Z,82.23
2022-11-24T19:18:51.864Z,80.43
2022-11-24T19:21:20.270Z,78.03
2022-11-24T19:23:49.483Z,86.10
2022-11-24T19:26:16.186Z,83.33
2022-11-24T19:28:42.917Z,77.83
2022-11-24T19:31:13.525Z,81.43
2022-11-24T19:33:40.655Z,83.77
2022-11-24T19:36:10.653Z,82.70
2022-11-24T19:38:37.417Z,73.23
2022-11-24T19:41:05.861Z,79.70
2022-11-24T19:43:32.741Z,73.87
2022-11-24T19:46:05.915Z,69.23
2022-11-24T19:48:33.688Z,71.50
2022-11-24T19:51:08.522Z,74.00
2022-11-24T19:53:35.899Z,71.70
2022-11-24T19:56:06.973Z,70.53
2022-11-24T19:58:36.600Z,76.23
2022-11-24T20:01:09.827Z,73.03
2022-11-24T20:03:41.572Z,74.20
2022-11-24T20:06:09.215Z,71.77
2022-11-24T20:08:36.647Z,72.30
2022-11-24T20:11:07.232Z,75.30
2022-11-24T20:13:34.539Z,77.73
2022-11-24T20:16:05.398Z,76.67
2022-11-24T20:18:33.630Z,76.37
2022-11-24T20:21:08.643Z,73.73
2022-11-24T20:23:37.971Z,78.03
2022-11-24T20:26:10.145Z,81.53
2022-11-24T20:28:39.225Z,83.87
2022-11-24T20:31:10.983Z,94.17
2022-11-24T20:33:37.789Z,82.47
2022-11-24T20:36:08.346Z,80.13
2022-11-24T20:38:36.213Z,88.37
2022-11-24T20:41:14.326Z,83.17
2022-11-24T20:43:43.574Z,87.87
2022-11-24T20:46:13.454Z,90.53
2022-11-24T20:48:40.312Z,87.37
2022-11-24T20:51:11.845Z,85.47
2022-11-24T20:53:38.584Z,88.17
2022-11-24T20:56:08.989Z,92.27
2022-11-24T20:58:35.992Z,80.83
2022-11-24T21:01:07.329Z,84.80
2022-11-24T21:03:38.422Z,82.77
2022-11-24T21:06:09.421Z,80.60
2022-11-24T21:08:36.927Z,71.43
2022-11-24T21:11:04.472Z,64.27
2022-11-24T21:13:32.897Z,66.47
2022-11-24T21:15:59.696Z,63.57
2022-11-24T21:18:26.436Z,65.90
2022-11-24T21:20:55.682Z,62.00
2022-11-24T21:23:22.423Z,66.70
2022-11-24T21:25:49.135Z,67.37
2022-11-24T21:28:15.835Z,64.70
2022-11-24T21:30:42.537Z,65.83
2022-11-24T21:33:09.254Z,68.27
2022-11-24T21:35:36.403Z,70.13
2022-11-24T21:38:03.590Z,76.57
2022-11-24T21:40:30.281Z,71.60
2022-11-24T21:42:59.732Z,70.57
2022-11-24T21:45:29.094Z,73.23
2022-11-24T21:48:03.298Z,76.73
2022-11-24T21:50:30.008Z,64.17
2022-11-24T21:53:03.630Z,68.00
2022-11-24T21:55:32.974Z,77.00
2022-11-24T21:57:59.661Z,75.20
2022-11-24T22:00:26.423Z,72.57
2022-11-24T22:02:54.542Z,70.23
2022-11-24T22:05:21.229Z,79.60
2022-11-24T22:07:50.368Z,74.10
2022-11-24T22:10:17.261Z,78.00
2022-11-24T22:12:43.996Z,78.93
2022-11-24T22:15:13.095Z,85.33
2022-11-24T22:17:39.799Z,82.03
2022-11-24T22:20:09.558Z,79.53
2022-11-24T22:22:36.281Z,79.23
2022-11-24T22:25:06.083Z,83.13
2022-11-24T22:27:33.148Z,91.10
2022-11-24T22:29:59.906Z,89.43
2022-11-24T22:32:26.602Z,98.97
2022-11-24T22:34:55.832Z,96.00
2022-11-24T22:37:22.511Z,89.17
2022-11-24T22:39:49.306Z,98.43
2022-11-24T22:42:18.456Z,100.93
2022-11-24T22:44:45.181Z,92.20
2022-11-24T22:47:14.443Z,88.20
2022-11-24T22:49:41.127Z,98.33
2022-11-24T22:52:07.830Z,94.47
2022-11-24T22:54:34.761Z,91.93
2022-11-24T22:57:01.713Z,91.50
2022-11-24T22:59:30.634Z,94.27
2022-11-24T23:01:59.562Z,87.67
2022-11-24T23:04:26.363Z,84.27
2022-11-24T23:06:53.161Z,91.60
2022-11-24T23:09:19.848Z,87.50
2022-11-24T23:11:51.338Z,83.93
2022-11-24T23:14:20.559Z,81.70
2022-11-24T23:16:47.345Z,79.80
2022-11-24T23:19:14.116Z,89.87
2022-11-24T23:21:40.830Z,88.60
2022-11-24T23:24:07.863Z,78.13
2022-11-24T23:26:40.972Z,90.77
2022-11-24T23:29:09.964Z,86.80
2022-11-24T23:31:40.300Z,87.93
2022-11-24T23:34:07.231Z,91.60
2022-11-24T23:36:33.981Z,89.80
2022-11-24T23:39:14.248Z,84.47
2022-11-24T23:41:43.456Z,91.13
2022-11-24T23:44:10.162Z,89.40
2022-11-24T23:46:36.864Z,91.23
2022-11-24T23:49:06.451Z,79.73
2022-11-24T23:51:33.379Z,92.20
2022-11-24T23:54:00.314Z,86.63
2022-11-24T23:56:32.801Z,85.37
2022-11-24T23:59:03.333Z,93.57
